Houghton County Memorial Airport
KCMX : rendu visible

Aérodrome :











RETROUVEZ-NOUS SUR...

 
LOGIN :

S'inscrire | Disclaimer

   EN    FR    IT 

 









Légende :    VFR   VFR Marginal   IFR   IFR Intensif   IFR Très Intensif
Visi : 
Plafond : 
>= 8 km
>= 3000ft
5 à 8 km
1000 à 3000 ft
1500m à 5 km
500 à 1000 ft
800 à 1500m
200 à 500 ft
< 800m
< 200 ft
Symboles :   Orages  Brouillard  Fortes neiges  Fortes précipitations  Vent > 20 kt






- Altitude de l'aérodrome : 1095 ft
- Code IATA : CMX


KCMX - Houghton County Memorial

DERNIER METAR :
  • 280753Z AUTO 00000KT 10SM CLR 15/13 A2987 RMK AO2 SLP114 T01500133

METARs EXPIRÉS :
  • 280653Z AUTO 00000KT 10SM FEW110 17/14 A2988 RMK AO2 SLP115 T01670144
  • 280553Z AUTO 00000KT 10SM SCT100 17/15 A2989 RMK AO2 SLP117 60000 T01720150 10200 20172 58003

TAF KCMX
Valide du 28 à 06h jusqu'au 29 à 06h UTC


280521Z 2806/2906 VRB03KT P6SM VCSH BKN070
FM280900 VRB04KT 4SM BR BKN030
FM281300 29005KT 2SM BR BKN025
FM281500 30006KT P6SM BKN100
FM282300 26006KT P6SM BKN200
FM290500 29009KT P6SM FEW120
FIR KZMP / Amérique du Nord



MET'MAP, la Météo Aéronautique d'un coup d'oeil ! - Copyright ORBIFLY Décembre 2007 - Disclaimer

ORBIFLY MET'MAP TEAM :

Programmation & Développement : Alexandra Zaïnal
Sur une idée originale de : Baudouin d'Aumeries
Assistance à la programmation : Marc-Olivier Méhu
Soutien technique & logistique : Manuel Goepfert

Contact : metmap@orbifly.com




SOURCES & CREDITS :

   NOAA       Earth
Advisory